Marbury, Maryland
Current Conditions -  °F | °C
As of 8:56 AM on Thursday 29 Jan 2015 (Local Time) from KNYG Reporting Station
Broken Clouds Broken Clouds  
Wind Chill: 25°   Ceiling: 16000
Heat Index: 25°   Visibility: 10mi
Dew Point: 15°   Wind: 0mph
Humidity: 66%   Direction: NA
Pressure: 30.34"   Gusts: NA
Location:  38.56°N, 77.16°W
Report Text: KNYG 291356Z 00000KT 10SM BKN160 M04/M09 A3034 RMK AO2 SLP274 T10391094 $
Loading
Personal Weather Stations






























Interactive Weather Map New forecast layout! Learn more

10-Day Weather Forecast

Advertisements
Track Severe Weather on mobile